Time;durP1;ratioP1;P1;durP2;ratioP2;P2;SDS_P1;SDS_P2;PMS_P1;PMS_P2;Temp;Humidity;BMP_temperature;BMP_pressure;BME280_temperature;BME280_humidity;BME280_pressure;Samples;Min_cycle;Max_cycle;Signal;HPM_P1;HPM_P2
2020/12/29 00:00:28;;;;;;;20.80;14.68;;;;;;;;;;5000000;28;20042;-67
2020/12/29 00:02:53;;;;;;;17.45;11.77;;;;;;;;;;5000295;28;20041;-67
2020/12/29 00:05:19;;;;;;;51.72;35.13;;;;;;;;;;4999238;28;20042;-67
2020/12/29 00:07:53;;;;;;;8.77;4.78;;;;;;;;;;5001605;28;20030;-67
2020/12/29 00:10:22;;;;;;;11.25;6.78;;;;;;;;;;4999195;28;20077;-67
2020/12/29 00:12:48;;;;;;;6.18;2.95;;;;;;;;;;4999944;28;20076;-67
2020/12/29 00:15:14;;;;;;;20.35;13.55;;;;;;;;;;4999038;28;20058;-67
2020/12/29 00:17:39;;;;;;;19.17;14.98;;;;;;;;;;5000856;28;20048;-67
2020/12/29 00:20:05;;;;;;;7.68;4.97;;;;;;;;;;4998567;28;20034;-67
2020/12/29 00:22:32;;;;;;;5.25;2.85;;;;;;;;;;5000191;28;20050;-66
2020/12/29 00:24:57;;;;;;;21.42;14.32;;;;;;;;;;4998892;28;20038;-67
2020/12/29 00:27:22;;;;;;;7.55;4.00;;;;;;;;;;4999060;28;20471;-67
2020/12/29 00:29:48;;;;;;;9.75;5.68;;;;;;;;;;4999631;28;20038;-67
2020/12/29 00:32:13;;;;;;;9.00;2.22;;;;;;;;;;4998216;28;20048;-66
2020/12/29 00:34:38;;;;;;;5.15;3.00;;;;;;;;;;5000289;28;20026;-66
2020/12/29 00:37:04;;;;;;;7.00;4.28;;;;;;;;;;5011889;28;20053;-67
2020/12/29 00:39:29;;;;;;;5.07;2.67;;;;;;;;;;4999898;28;20037;-66
2020/12/29 00:41:55;;;;;;;4.15;2.15;;;;;;;;;;4999973;28;20029;-66
2020/12/29 00:44:20;;;;;;;7.20;4.88;;;;;;;;;;4998926;28;20052;-67
2020/12/29 00:46:46;;;;;;;6.03;3.28;;;;;;;;;;4998200;28;20461;-66
2020/12/29 00:49:11;;;;;;;9.43;5.85;;;;;;;;;;4997729;28;20110;-66
2020/12/29 00:51:36;;;;;;;17.92;13.88;;;;;;;;;;5000458;28;20040;-66
2020/12/29 00:54:02;;;;;;;9.30;5.43;;;;;;;;;;4997424;28;20105;-66
2020/12/29 00:56:27;;;;;;;6.40;4.07;;;;;;;;;;4998182;28;20169;-67
2020/12/29 00:58:53;;;;;;;26.95;21.90;;;;;;;;;;4999793;28;20056;-65
2020/12/29 01:01:18;;;;;;;11.75;8.00;;;;;;;;;;4998926;28;20037;-67
2020/12/29 01:03:43;;;;;;;14.38;9.57;;;;;;;;;;4998863;28;20026;-66
2020/12/29 01:06:10;;;;;;;4.75;2.92;;;;;;;;;;4997666;28;20480;-66
2020/12/29 01:08:35;;;;;;;7.85;5.13;;;;;;;;;;4999938;28;20066;-66
2020/12/29 01:11:01;;;;;;;25.42;14.98;;;;;;;;;;4998786;28;20080;-66
2020/12/29 01:13:27;;;;;;;9.80;3.75;;;;;;;;;;4998686;28;20045;-66
2020/12/29 01:15:52;;;;;;;4.70;2.72;;;;;;;;;;4999138;28;20030;-66
2020/12/29 01:18:19;;;;;;;20.67;11.23;;;;;;;;;;4998274;28;20042;-66
2020/12/29 01:20:44;;;;;;;20.48;11.75;;;;;;;;;;4999624;28;20053;-67
2020/12/29 01:23:10;;;;;;;50.92;29.88;;;;;;;;;;4995951;28;20072;-67
2020/12/29 01:25:36;;;;;;;19.38;11.63;;;;;;;;;;4999683;28;20042;-67
2020/12/29 01:28:01;;;;;;;7.28;4.20;;;;;;;;;;4998543;28;20041;-67
2020/12/29 01:30:26;;;;;;;63.22;34.05;;;;;;;;;;4998871;28;20522;-67
2020/12/29 01:32:52;;;;;;;13.13;6.30;;;;;;;;;;4998091;28;20061;-67
2020/12/29 01:35:17;;;;;;;11.07;3.75;;;;;;;;;;5000564;28;20030;-66
2020/12/29 01:37:44;;;;;;;10.52;3.97;;;;;;;;;;5000475;28;20033;-66
2020/12/29 01:40:10;;;;;;;6.45;3.65;;;;;;;;;;4995990;28;20057;-66
2020/12/29 01:42:37;;;;;;;5.57;2.97;;;;;;;;;;4999407;28;20461;-66
2020/12/29 01:45:10;;;;;;;5.43;2.78;;;;;;;;;;4996986;28;20034;-66
2020/12/29 01:47:37;;;;;;;5.22;2.38;;;;;;;;;;4999252;28;20038;-66
2020/12/29 01:50:09;;;;;;;6.97;2.42;;;;;;;;;;4995867;28;20466;-67
2020/12/29 01:52:36;;;;;;;6.35;2.10;;;;;;;;;;4998683;28;20060;-67
2020/12/29 01:55:01;;;;;;;8.43;2.28;;;;;;;;;;4996682;28;20033;-67
2020/12/29 01:57:27;;;;;;;5.70;2.33;;;;;;;;;;4997867;28;20038;-67
2020/12/29 01:59:52;;;;;;;5.97;2.78;;;;;;;;;;4996973;28;20034;-67
2020/12/29 02:02:17;;;;;;;3.97;2.17;;;;;;;;;;4997816;28;20058;-61
2020/12/29 02:04:44;;;;;;;4.75;2.38;;;;;;;;;;4998880;28;20037;-62
2020/12/29 02:07:10;;;;;;;6.45;2.38;;;;;;;;;;4995991;28;20045;-62
2020/12/29 02:09:36;;;;;;;3.83;2.38;;;;;;;;;;4999156;28;20034;-62
2020/12/29 02:12:23;;;;;;;4.28;2.30;;;;;;;;;;4997781;28;20045;-62
2020/12/29 02:14:48;;;;;;;5.60;2.95;;;;;;;;;;4994200;28;20128;-62
2020/12/29 02:17:13;;;;;;;5.78;2.47;;;;;;;;;;4997067;28;20117;-62
2020/12/29 02:19:39;;;;;;;4.05;2.17;;;;;;;;;;4998943;28;20484;-62
2020/12/29 02:22:04;;;;;;;4.65;2.42;;;;;;;;;;4994457;28;20045;-61
2020/12/29 02:24:29;;;;;;;4.28;2.50;;;;;;;;;;4997047;28;20038;-62
2020/12/29 02:26:55;;;;;;;4.28;2.42;;;;;;;;;;4997954;28;20025;-62
2020/12/29 02:29:20;;;;;;;6.70;2.80;;;;;;;;;;4997331;28;20170;-62
2020/12/29 02:31:45;;;;;;;5.90;2.95;;;;;;;;;;4998391;28;20463;-62
2020/12/29 02:34:11;;;;;;;3.70;2.15;;;;;;;;;;4996681;28;20034;-61
2020/12/29 02:36:36;;;;;;;4.82;2.53;;;;;;;;;;4998586;28;20489;-61
2020/12/29 02:39:01;;;;;;;4.10;2.15;;;;;;;;;;4997322;28;20535;-61
2020/12/29 02:41:27;;;;;;;5.28;2.67;;;;;;;;;;4997376;28;20057;-62
2020/12/29 02:43:52;;;;;;;4.53;2.53;;;;;;;;;;4997818;28;20052;-62
2020/12/29 02:46:17;;;;;;;4.00;2.30;;;;;;;;;;4997449;28;20026;-61
2020/12/29 02:48:43;;;;;;;6.85;2.42;;;;;;;;;;4998677;28;20053;-62
2020/12/29 02:51:13;;;;;;;5.60;2.53;;;;;;;;;;4996007;28;20042;-62
2020/12/29 02:53:39;;;;;;;7.95;2.30;;;;;;;;;;4998411;28;20034;-62
2020/12/29 02:56:04;;;;;;;4.95;2.05;;;;;;;;;;4996237;28;20109;-62
2020/12/29 02:58:30;;;;;;;4.20;2.03;;;;;;;;;;4996168;28;20092;-62
2020/12/29 03:00:55;;;;;;;3.13;1.88;;;;;;;;;;4996979;28;20039;-62
2020/12/29 03:03:21;;;;;;;3.60;1.75;;;;;;;;;;4996729;28;20034;-62
2020/12/29 03:05:52;;;;;;;4.93;1.58;;;;;;;;;;4997601;28;20091;-62
2020/12/29 03:08:17;;;;;;;;;;;;;;;;;;4990880;28;20039;-62
2020/12/29 03:10:43;;;;;;;3.85;1.40;;;;;;;;;;5001345;28;19913;-62
2020/12/29 03:13:08;;;;;;;2.97;1.42;;;;;;;;;;4999020;28;20084;-62
2020/12/29 03:15:33;;;;;;;4.45;2.47;;;;;;;;;;4999845;28;20080;-62
2020/12/29 03:17:59;;;;;;;3.45;1.90;;;;;;;;;;5003602;28;20045;-62
2020/12/29 03:20:24;;;;;;;3.33;1.55;;;;;;;;;;5000269;28;20034;-62
2020/12/29 03:22:49;;;;;;;2.90;1.60;;;;;;;;;;5000860;28;20034;-62
2020/12/29 03:25:15;;;;;;;3.15;1.50;;;;;;;;;;4998075;28;20034;-62
2020/12/29 03:27:40;;;;;;;4.10;1.50;;;;;;;;;;4998640;28;20445;-62
2020/12/29 03:30:05;;;;;;;3.65;1.77;;;;;;;;;;4999994;28;20041;-62
2020/12/29 03:32:31;;;;;;;3.85;1.95;;;;;;;;;;5001289;28;20042;-62
2020/12/29 03:34:57;;;;;;;4.20;2.05;;;;;;;;;;5000659;28;20026;-62
2020/12/29 03:37:22;;;;;;;4.47;2.13;;;;;;;;;;4997252;28;20365;-62
2020/12/29 03:39:47;;;;;;;6.07;1.80;;;;;;;;;;5001443;28;20025;-62
2020/12/29 03:42:13;;;;;;;6.93;2.63;;;;;;;;;;5000517;28;20126;-62
2020/12/29 03:44:38;;;;;;;4.88;1.98;;;;;;;;;;5000075;28;20042;-62
2020/12/29 03:47:04;;;;;;;4.38;1.80;;;;;;;;;;5000031;28;20022;-62
2020/12/29 03:49:29;;;;;;;4.65;1.83;;;;;;;;;;5000601;28;20109;-62
2020/12/29 03:51:55;;;;;;;5.28;1.70;;;;;;;;;;5000720;28;20037;-62
2020/12/29 03:54:20;;;;;;;5.38;2.00;;;;;;;;;;4997802;28;20269;-62
2020/12/29 03:56:46;;;;;;;4.57;1.63;;;;;;;;;;5001580;28;20049;-62
2020/12/29 03:59:11;;;;;;;4.22;1.80;;;;;;;;;;4999267;28;20041;-62
2020/12/29 04:01:37;;;;;;;4.38;1.38;;;;;;;;;;5000170;28;20054;-62
2020/12/29 04:04:02;;;;;;;3.78;1.52;;;;;;;;;;4999582;28;20031;-62
2020/12/29 04:06:28;;;;;;;6.03;1.40;;;;;;;;;;4999234;28;20106;-62
2020/12/29 04:08:53;;;;;;;4.13;1.70;;;;;;;;;;5000737;28;20127;-62
2020/12/29 04:11:18;;;;;;;2.42;1.08;;;;;;;;;;4996186;28;20097;-62
2020/12/29 04:13:44;;;;;;;5.13;1.60;;;;;;;;;;5000540;28;20030;-62
2020/12/29 04:16:11;;;;;;;3.45;1.27;;;;;;;;;;4998715;28;20428;-61
2020/12/29 04:18:37;;;;;;;2.40;1.17;;;;;;;;;;5000881;28;20037;-62
2020/12/29 04:21:03;;;;;;;2.72;1.20;;;;;;;;;;4997500;28;20161;-62
2020/12/29 04:23:28;;;;;;;2.58;1.20;;;;;;;;;;5000064;28;20070;-62
2020/12/29 04:25:55;;;;;;;2.92;1.23;;;;;;;;;;5000098;28;20109;-62
2020/12/29 04:28:20;;;;;;;2.40;1.25;;;;;;;;;;4998322;28;20030;-62
2020/12/29 04:30:46;;;;;;;2.80;1.00;;;;;;;;;;4999537;28;20044;-62
2020/12/29 04:33:11;;;;;;;3.78;1.30;;;;;;;;;;4998733;28;20396;-61
2020/12/29 04:35:36;;;;;;;2.67;1.27;;;;;;;;;;4998719;28;20049;-61
2020/12/29 04:38:02;;;;;;;1.63;0.95;;;;;;;;;;5014067;28;20069;-62
2020/12/29 04:40:31;;;;;;;1.98;0.90;;;;;;;;;;4999796;28;20031;-62
2020/12/29 04:42:57;;;;;;;3.10;1.27;;;;;;;;;;4998775;28;20037;-62
2020/12/29 04:45:24;;;;;;;3.17;1.10;;;;;;;;;;4996972;28;20030;-61
2020/12/29 04:47:50;;;;;;;3.10;1.15;;;;;;;;;;5000213;28;20038;-62
2020/12/29 04:50:18;;;;;;;2.78;1.27;;;;;;;;;;4998626;28;20382;-62
2020/12/29 04:52:45;;;;;;;2.40;1.05;;;;;;;;;;5000613;28;20026;-62
2020/12/29 04:55:10;;;;;;;3.55;1.52;;;;;;;;;;4995119;28;20105;-61
2020/12/29 04:57:36;;;;;;;2.42;1.13;;;;;;;;;;5000212;28;20570;-62
2020/12/29 05:00:06;;;;;;;2.28;0.80;;;;;;;;;;4998404;28;20030;-60
2020/12/29 05:02:32;;;;;;;2.83;1.00;;;;;;;;;;4998716;28;21065;-60
2020/12/29 05:04:57;;;;;;;2.95;1.00;;;;;;;;;;4995588;28;20044;-60
2020/12/29 05:07:22;;;;;;;7.95;1.40;;;;;;;;;;4995537;28;20117;-60
2020/12/29 05:09:48;;;;;;;2.85;1.10;;;;;;;;;;5015618;28;20029;-60
2020/12/29 05:12:16;;;;;;;1.80;0.73;;;;;;;;;;4998317;28;20551;-61
2020/12/29 05:14:44;;;;;;;1.95;0.80;;;;;;;;;;4994882;28;20129;-61
2020/12/29 05:17:09;;;;;;;1.77;0.80;;;;;;;;;;4993002;28;20050;-61
2020/12/29 05:19:36;;;;;;;1.23;0.70;;;;;;;;;;4999583;28;20046;-61
2020/12/29 05:22:02;;;;;;;2.25;0.90;;;;;;;;;;4997938;28;20491;-61
2020/12/29 05:24:28;;;;;;;1.67;0.80;;;;;;;;;;4997230;28;20106;-61
2020/12/29 05:26:56;;;;;;;2.03;0.82;;;;;;;;;;4999396;28;20030;-61
2020/12/29 05:29:23;;;;;;;0.73;0.50;;;;;;;;;;4998116;28;20038;-61
2020/12/29 05:31:50;;;;;;;1.40;0.80;;;;;;;;;;4994643;28;20132;-61
2020/12/29 05:34:23;;;;;;;2.97;0.80;;;;;;;;;;4997971;28;20042;-61
2020/12/29 05:36:50;;;;;;;2.13;0.88;;;;;;;;;;4999719;28;20117;-61
2020/12/29 05:39:16;;;;;;;2.17;0.98;;;;;;;;;;4998981;28;20594;-61
2020/12/29 05:41:43;;;;;;;2.00;0.95;;;;;;;;;;4998072;28;20044;-60
2020/12/29 05:44:12;;;;;;;1.35;0.70;;;;;;;;;;4993664;28;20052;-61
2020/12/29 05:46:38;;;;;;;2.00;0.88;;;;;;;;;;4999178;28;20042;-61
2020/12/29 05:49:04;;;;;;;1.23;0.80;;;;;;;;;;4997359;28;20032;-61
2020/12/29 05:51:32;;;;;;;1.40;0.80;;;;;;;;;;4998555;28;20030;-61
2020/12/29 05:54:09;;;;;;;2.33;1.00;;;;;;;;;;4998080;28;20066;-61
2020/12/29 05:56:34;;;;;;;1.60;0.82;;;;;;;;;;4997206;28;20042;-61
2020/12/29 05:59:02;;;;;;;2.13;1.00;;;;;;;;;;4997191;28;20056;-61
2020/12/29 06:01:42;;;;;;;2.00;0.90;;;;;;;;;;4998294;28;20030;-61
2020/12/29 06:04:08;;;;;;;1.45;0.70;;;;;;;;;;4996915;28;20035;-61
2020/12/29 06:06:36;;;;;;;1.60;0.90;;;;;;;;;;4998589;28;20112;-61
2020/12/29 06:09:10;;;;;;;1.95;1.00;;;;;;;;;;4996420;28;20168;-64
2020/12/29 06:11:38;;;;;;;2.55;1.02;;;;;;;;;;4998561;28;20120;-60
2020/12/29 06:14:13;;;;;;;1.58;0.93;;;;;;;;;;4997270;28;20041;-61
2020/12/29 06:16:41;;;;;;;1.17;0.70;;;;;;;;;;4996390;28;20038;-61
2020/12/29 06:19:24;;;;;;;1.48;0.85;;;;;;;;;;4992047;28;20073;-65
2020/12/29 06:22:06;;;;;;;1.35;0.80;;;;;;;;;;4994166;28;20112;-66
2020/12/29 06:24:45;;;;;;;1.33;0.80;;;;;;;;;;4996002;28;20970;-66
2020/12/29 06:27:12;;;;;;;1.45;0.77;;;;;;;;;;4993400;28;20034;-66
2020/12/29 06:29:38;;;;;;;1.73;0.80;;;;;;;;;;4996578;28;20062;-66
2020/12/29 06:32:14;;;;;;;2.55;0.98;;;;;;;;;;4995554;28;20049;-66
2020/12/29 06:34:41;;;;;;;2.17;1.02;;;;;;;;;;4993414;28;20042;-66
2020/12/29 06:37:12;;;;;;;1.73;0.90;;;;;;;;;;4993239;28;20053;-67
2020/12/29 06:39:42;;;;;;;1.70;0.93;;;;;;;;;;4997084;28;20034;-66
2020/12/29 06:42:08;;;;;;;2.10;1.08;;;;;;;;;;4995933;28;20037;-66
2020/12/29 06:44:34;;;;;;;1.48;0.73;;;;;;;;;;4997885;28;20053;-66
2020/12/29 06:47:06;;;;;;;1.75;0.98;;;;;;;;;;4996332;28;20053;-66
2020/12/29 06:49:31;;;;;;;2.33;0.85;;;;;;;;;;4997898;28;20041;-66
2020/12/29 06:52:17;;;;;;;1.40;0.80;;;;;;;;;;4996577;28;20904;-66
2020/12/29 06:54:52;;;;;;;1.75;0.90;;;;;;;;;;4998338;28;20496;-68
2020/12/29 06:57:38;;;;;;;1.42;0.80;;;;;;;;;;4995970;28;20043;-67
2020/12/29 07:00:15;;;;;;;2.38;1.00;;;;;;;;;;4990011;28;20046;-67
2020/12/29 07:02:41;;;;;;;1.90;1.00;;;;;;;;;;4997665;28;20034;-67
2020/12/29 07:05:35;;;;;;;2.10;0.95;;;;;;;;;;4996013;28;20042;-66
2020/12/29 07:08:06;;;;;;;2.42;1.15;;;;;;;;;;4995749;28;20045;-66
2020/12/29 07:10:45;;;;;;;2.53;1.40;;;;;;;;;;4997687;28;20046;-66
2020/12/29 07:13:13;;;;;;;2.38;1.17;;;;;;;;;;4992733;28;20039;-67
2020/12/29 07:15:49;;;;;;;5.63;3.00;;;;;;;;;;4992888;28;20046;-66
2020/12/29 07:18:26;;;;;;;3.38;1.58;;;;;;;;;;4994563;28;20125;-66
2020/12/29 07:20:54;;;;;;;3.17;1.42;;;;;;;;;;4997293;28;20056;-66
2020/12/29 07:23:27;;;;;;;2.08;1.15;;;;;;;;;;4995273;28;20034;-66
2020/12/29 07:25:56;;;;;;;2.97;1.40;;;;;;;;;;4997101;28;20022;-66
2020/12/29 07:28:26;;;;;;;2.45;1.08;;;;;;;;;;4996433;28;20113;-65
2020/12/29 07:30:52;;;;;;;4.75;1.42;;;;;;;;;;4996910;28;20034;-65
2020/12/29 07:33:23;;;;;;;2.88;1.20;;;;;;;;;;4996185;28;20084;-65
2020/12/29 07:35:49;;;;;;;2.00;1.10;;;;;;;;;;4997683;28;20477;-64
2020/12/29 07:38:15;;;;;;;1.45;0.90;;;;;;;;;;4996335;28;20181;-64
2020/12/29 07:40:41;;;;;;;2.13;1.00;;;;;;;;;;4997369;28;20385;-65
2020/12/29 07:43:07;;;;;;;1.25;0.65;;;;;;;;;;4995429;28;20041;-65
2020/12/29 07:45:33;;;;;;;1.98;0.88;;;;;;;;;;4996958;28;20033;-65
2020/12/29 07:48:00;;;;;;;1.38;0.75;;;;;;;;;;4998467;28;20026;-65
2020/12/29 07:50:26;;;;;;;4.00;2.60;;;;;;;;;;4999142;28;20117;-63
2020/12/29 07:53:07;;;;;;;4.03;2.30;;;;;;;;;;4996237;28;20109;-64
2020/12/29 07:55:33;;;;;;;1.75;1.00;;;;;;;;;;4998196;28;20053;-64
2020/12/29 07:58:06;;;;;;;2.78;1.33;;;;;;;;;;5000747;28;20041;-64
2020/12/29 08:00:33;;;;;;;1.70;0.90;;;;;;;;;;4999484;28;20038;-65
2020/12/29 08:02:58;;;;;;;2.05;1.10;;;;;;;;;;4998711;28;20037;-66
2020/12/29 08:05:26;;;;;;;1.92;0.80;;;;;;;;;;4998401;28;20026;-65
2020/12/29 08:07:56;;;;;;;2.33;1.02;;;;;;;;;;4999847;28;20377;-65
2020/12/29 08:10:32;;;;;;;1.45;0.70;;;;;;;;;;4995573;28;20042;-66
2020/12/29 08:13:02;;;;;;;1.92;1.10;;;;;;;;;;4995733;28;20463;-65
2020/12/29 08:15:29;;;;;;;1.48;0.90;;;;;;;;;;4996971;28;20096;-66
2020/12/29 08:18:05;;;;;;;1.33;0.88;;;;;;;;;;4997086;28;20030;-61
2020/12/29 08:20:31;;;;;;;1.88;1.10;;;;;;;;;;4997192;28;20034;-61
2020/12/29 08:23:02;;;;;;;1.88;0.90;;;;;;;;;;5000503;28;20033;-61
2020/12/29 08:25:30;;;;;;;;;;;;;;;;;;4999753;28;20026;-60
2020/12/29 08:27:55;;;;;;;2.08;1.05;;;;;;;;;;4997000;28;19920;-61
2020/12/29 08:30:23;;;;;;;1.88;0.90;;;;;;;;;;4998933;28;20452;-60
2020/12/29 08:32:53;;;;;;;1.30;0.77;;;;;;;;;;4999924;28;20030;-61
2020/12/29 08:35:19;;;;;;;1.38;0.77;;;;;;;;;;4996364;28;20030;-61
2020/12/29 08:37:56;;;;;;;2.47;1.20;;;;;;;;;;5000426;28;20073;-61
2020/12/29 08:40:24;;;;;;;2.10;0.90;;;;;;;;;;4997597;28;20053;-61
2020/12/29 08:42:50;;;;;;;1.52;0.75;;;;;;;;;;4999973;28;20031;-61
2020/12/29 08:45:16;;;;;;;1.70;0.90;;;;;;;;;;4997207;28;20038;-60
2020/12/29 08:47:45;;;;;;;2.03;1.02;;;;;;;;;;5000307;28;20034;-60
2020/12/29 08:50:40;;;;;;;1.98;1.10;;;;;;;;;;4993883;28;20095;-61
2020/12/29 08:53:07;;;;;;;2.70;1.25;;;;;;;;;;4990054;28;20050;-61
2020/12/29 08:55:34;;;;;;;1.90;0.90;;;;;;;;;;4997657;28;20042;-60
2020/12/29 08:58:00;;;;;;;3.72;2.17;;;;;;;;;;4999026;28;20437;-61
2020/12/29 09:00:28;;;;;;;2.85;1.33;;;;;;;;;;4998863;28;20541;-60
2020/12/29 09:02:53;;;;;;;2.92;1.17;;;;;;;;;;4998438;28;20033;-61
2020/12/29 09:05:24;;;;;;;2.13;1.00;;;;;;;;;;4997670;28;20092;-61
2020/12/29 09:07:50;;;;;;;2.40;0.98;;;;;;;;;;4999815;28;20112;-60
2020/12/29 09:10:16;;;;;;;2.47;1.00;;;;;;;;;;4998110;28;20106;-61
2020/12/29 09:12:42;;;;;;;1.75;0.85;;;;;;;;;;4995472;28;20574;-60
2020/12/29 09:15:25;;;;;;;3.03;1.10;;;;;;;;;;4997158;28;20040;-62
2020/12/29 09:17:57;;;;;;;1.95;1.00;;;;;;;;;;4998467;28;20030;-62
2020/12/29 09:20:28;;;;;;;2.70;1.17;;;;;;;;;;4997600;28;20026;-62
2020/12/29 09:23:09;;;;;;;2.85;1.23;;;;;;;;;;4999012;28;20033;-62
2020/12/29 09:25:43;;;;;;;1.67;0.80;;;;;;;;;;4999625;28;20073;-59
2020/12/29 09:28:20;;;;;;;5.97;1.20;;;;;;;;;;4994796;28;20711;-62
2020/12/29 09:31:05;;;;;;;2.50;1.30;;;;;;;;;;4999997;28;20108;-62
2020/12/29 09:33:31;;;;;;;1.65;0.98;;;;;;;;;;4996169;28;20038;-62
2020/12/29 09:35:59;;;;;;;1.65;0.90;;;;;;;;;;4998470;28;20057;-62
2020/12/29 09:38:25;;;;;;;2.15;1.00;;;;;;;;;;4997904;28;20034;-61
2020/12/29 09:40:50;;;;;;;1.85;1.00;;;;;;;;;;4995358;28;20037;-61
2020/12/29 09:43:16;;;;;;;1.80;0.93;;;;;;;;;;5000482;28;20046;-61
2020/12/29 09:45:45;;;;;;;1.98;1.00;;;;;;;;;;4998007;28;20046;-61
2020/12/29 09:48:14;;;;;;;2.33;1.10;;;;;;;;;;4994928;28;20484;-61
2020/12/29 09:50:40;;;;;;;2.15;1.10;;;;;;;;;;4993109;28;20034;-61
2020/12/29 09:53:05;;;;;;;3.38;1.02;;;;;;;;;;4997908;28;20045;-61
2020/12/29 09:55:31;;;;;;;2.25;1.10;;;;;;;;;;4997350;28;20124;-62
2020/12/29 09:57:56;;;;;;;2.33;1.27;;;;;;;;;;4998238;28;20362;-67
2020/12/29 10:00:22;;;;;;;5.60;3.63;;;;;;;;;;4995976;28;20073;-67
2020/12/29 10:02:49;;;;;;;9.35;7.28;;;;;;;;;;4999191;28;20045;-68
2020/12/29 10:05:14;;;;;;;5.22;3.30;;;;;;;;;;4996395;28;20026;-67
2020/12/29 10:07:40;;;;;;;2.80;1.52;;;;;;;;;;4996120;28;20087;-67
2020/12/29 10:10:05;;;;;;;2.40;1.00;;;;;;;;;;4997139;28;20057;-67
2020/12/29 10:12:30;;;;;;;2.20;1.15;;;;;;;;;;4998112;28;20409;-67
2020/12/29 10:14:56;;;;;;;2.05;1.08;;;;;;;;;;4997907;28;20708;-67
2020/12/29 10:17:22;;;;;;;2.25;1.15;;;;;;;;;;4993867;28;20425;-68
2020/12/29 10:19:48;;;;;;;2.70;1.35;;;;;;;;;;4997976;28;20664;-67
2020/12/29 10:22:13;;;;;;;2.20;1.30;;;;;;;;;;4995516;28;20104;-67
2020/12/29 10:24:39;;;;;;;4.35;2.83;;;;;;;;;;4996882;28;20142;-68
2020/12/29 10:27:04;;;;;;;4.00;1.58;;;;;;;;;;4996804;28;20367;-67
2020/12/29 10:29:29;;;;;;;2.55;1.42;;;;;;;;;;4997772;28;20030;-67
2020/12/29 10:31:55;;;;;;;2.10;1.13;;;;;;;;;;4995218;28;20041;-66
2020/12/29 10:34:20;;;;;;;3.30;1.52;;;;;;;;;;4997096;28;20037;-66
2020/12/29 10:36:46;;;;;;;2.42;1.23;;;;;;;;;;4998632;28;20491;-66
2020/12/29 10:39:12;;;;;;;3.13;1.45;;;;;;;;;;4995370;28;20433;-67
2020/12/29 10:41:39;;;;;;;2.90;1.58;;;;;;;;;;4997602;28;20041;-67
2020/12/29 10:44:06;;;;;;;2.80;1.40;;;;;;;;;;4995645;28;20034;-67
2020/12/29 10:46:34;;;;;;;2.40;1.05;;;;;;;;;;4996705;28;20038;-68
2020/12/29 10:48:59;;;;;;;4.93;1.77;;;;;;;;;;4996198;28;20117;-67
2020/12/29 10:51:25;;;;;;;2.83;1.45;;;;;;;;;;4996698;28;20061;-69
2020/12/29 10:53:52;;;;;;;5.50;1.73;;;;;;;;;;4998221;28;20034;-67
2020/12/29 10:56:17;;;;;;;2.45;1.45;;;;;;;;;;4996583;28;20125;-67
2020/12/29 10:58:43;;;;;;;2.92;1.58;;;;;;;;;;4998168;28;20108;-68
2020/12/29 11:01:09;;;;;;;2.70;1.50;;;;;;;;;;4990710;28;20047;-67
2020/12/29 11:03:35;;;;;;;2.78;1.55;;;;;;;;;;4997858;28;20372;-67
2020/12/29 11:06:00;;;;;;;3.22;1.67;;;;;;;;;;4997045;28;20030;-67
2020/12/29 11:08:27;;;;;;;7.13;2.00;;;;;;;;;;4994655;28;20054;-66
2020/12/29 11:10:53;;;;;;;5.45;1.55;;;;;;;;;;4998068;28;20041;-67
2020/12/29 11:13:19;;;;;;;4.25;1.95;;;;;;;;;;4996424;28;20575;-66
2020/12/29 11:15:47;;;;;;;4.57;1.90;;;;;;;;;;4998154;28;20027;-66
2020/12/29 11:18:13;;;;;;;3.53;1.60;;;;;;;;;;4998523;28;20709;-66
2020/12/29 11:20:38;;;;;;;3.58;1.77;;;;;;;;;;4998147;28;20068;-67
2020/12/29 11:23:03;;;;;;;3.28;1.40;;;;;;;;;;4995484;28;20066;-66
2020/12/29 11:25:29;;;;;;;4.55;1.73;;;;;;;;;;4995913;28;20036;-66
2020/12/29 11:27:54;;;;;;;6.30;3.05;;;;;;;;;;4993442;28;20095;-67
2020/12/29 11:30:20;;;;;;;3.83;1.85;;;;;;;;;;4994333;28;20527;-67
2020/12/29 11:32:45;;;;;;;3.03;1.83;;;;;;;;;;4998050;28;20037;-67
2020/12/29 11:35:10;;;;;;;6.10;3.42;;;;;;;;;;4990968;28;20038;-67
2020/12/29 11:37:36;;;;;;;6.78;2.80;;;;;;;;;;4998542;28;20458;-67
2020/12/29 11:40:01;;;;;;;3.78;1.75;;;;;;;;;;4998396;28;20499;-67
2020/12/29 11:42:27;;;;;;;3.15;1.70;;;;;;;;;;4997805;28;20050;-68
2020/12/29 11:44:52;;;;;;;7.10;1.65;;;;;;;;;;4995698;28;20034;-68
2020/12/29 11:47:17;;;;;;;5.75;2.00;;;;;;;;;;4999296;28;20485;-68
2020/12/29 11:49:44;;;;;;;6.18;2.30;;;;;;;;;;5001456;28;20036;-66
2020/12/29 11:52:10;;;;;;;3.90;1.50;;;;;;;;;;4995559;28;20108;-66
2020/12/29 11:54:35;;;;;;;5.05;1.63;;;;;;;;;;5000961;28;20998;-67
2020/12/29 11:57:00;;;;;;;4.10;1.80;;;;;;;;;;5000114;28;20046;-66
2020/12/29 11:59:26;;;;;;;4.30;2.40;;;;;;;;;;4998764;28;20117;-66
2020/12/29 12:01:51;;;;;;;4.57;2.35;;;;;;;;;;4999576;28;20083;-66
2020/12/29 12:04:17;;;;;;;3.35;1.38;;;;;;;;;;4999423;28;20624;-67
2020/12/29 12:06:45;;;;;;;6.82;1.90;;;;;;;;;;5000199;28;20045;-67
2020/12/29 12:09:12;;;;;;;4.32;1.88;;;;;;;;;;4992989;28;20092;-67
2020/12/29 12:11:37;;;;;;;4.85;2.20;;;;;;;;;;5000564;28;20128;-66
2020/12/29 12:14:03;;;;;;;4.10;1.60;;;;;;;;;;4998240;28;20619;-67
2020/12/29 12:16:28;;;;;;;4.75;1.58;;;;;;;;;;4999001;28;20366;-67
2020/12/29 12:18:53;;;;;;;4.13;1.42;;;;;;;;;;4997953;28;20065;-66
2020/12/29 12:21:27;;;;;;;3.45;1.63;;;;;;;;;;5001025;28;20449;-68
2020/12/29 12:23:53;;;;;;;4.78;1.92;;;;;;;;;;4999487;28;20022;-67
2020/12/29 12:26:18;;;;;;;4.90;1.80;;;;;;;;;;4998859;28;20398;-66
2020/12/29 12:28:43;;;;;;;5.28;1.55;;;;;;;;;;4998063;28;20472;-66
2020/12/29 12:31:13;;;;;;;3.17;1.85;;;;;;;;;;4996651;28;20053;-67
2020/12/29 12:33:38;;;;;;;4.80;2.50;;;;;;;;;;4998643;28;20042;-67
2020/12/29 12:36:04;;;;;;;5.18;2.13;;;;;;;;;;4996103;28;20053;-67
2020/12/29 12:38:29;;;;;;;5.00;2.38;;;;;;;;;;4997051;28;20034;-67
2020/12/29 12:40:55;;;;;;;3.70;1.80;;;;;;;;;;4998882;28;20034;-67
2020/12/29 12:43:20;;;;;;;3.97;2.15;;;;;;;;;;4996906;28;20072;-67
2020/12/29 12:45:47;;;;;;;4.15;1.90;;;;;;;;;;4999641;28;20357;-67
2020/12/29 12:48:13;;;;;;;4.32;2.10;;;;;;;;;;4997031;28;20421;-67
2020/12/29 12:50:38;;;;;;;6.57;2.42;;;;;;;;;;4999301;28;20042;-67
2020/12/29 12:53:03;;;;;;;3.97;1.98;;;;;;;;;;4997805;28;20481;-68
2020/12/29 12:55:29;;;;;;;7.88;2.85;;;;;;;;;;4998127;28;20034;-65
2020/12/29 12:57:54;;;;;;;6.78;2.45;;;;;;;;;;4997308;28;20370;-66
2020/12/29 13:00:19;;;;;;;4.10;2.25;;;;;;;;;;4997289;28;20116;-66
2020/12/29 13:02:45;;;;;;;4.80;2.50;;;;;;;;;;4999055;28;20022;-67
2020/12/29 13:05:10;;;;;;;6.53;2.55;;;;;;;;;;4992675;28;20450;-67
2020/12/29 13:07:35;;;;;;;6.35;2.28;;;;;;;;;;4998984;28;20140;-67
2020/12/29 13:10:01;;;;;;;5.65;2.72;;;;;;;;;;4997278;28;20038;-65
2020/12/29 13:12:26;;;;;;;6.82;2.80;;;;;;;;;;4990417;28;20034;-65
2020/12/29 13:14:51;;;;;;;4.70;2.10;;;;;;;;;;4987273;28;20038;-64
2020/12/29 13:17:19;;;;;;;5.10;2.53;;;;;;;;;;4993978;28;20036;-64
2020/12/29 13:19:44;;;;;;;4.63;2.13;;;;;;;;;;4995460;28;20358;-66
2020/12/29 13:22:09;;;;;;;5.93;2.42;;;;;;;;;;4993071;28;20049;-66
2020/12/29 13:24:35;;;;;;;3.70;2.22;;;;;;;;;;4996346;28;20042;-65
2020/12/29 13:27:00;;;;;;;5.40;2.20;;;;;;;;;;4995121;28;20026;-65
2020/12/29 13:29:25;;;;;;;7.60;3.03;;;;;;;;;;4994154;28;20061;-65
2020/12/29 13:31:51;;;;;;;5.35;2.60;;;;;;;;;;4990251;28;20085;-66
2020/12/29 13:34:16;;;;;;;7.05;2.78;;;;;;;;;;4995234;28;20030;-66
2020/12/29 13:36:42;;;;;;;4.97;2.63;;;;;;;;;;4996591;28;20045;-66
2020/12/29 13:39:07;;;;;;;5.57;2.90;;;;;;;;;;4993464;28;20082;-65
2020/12/29 13:41:32;;;;;;;4.97;2.55;;;;;;;;;;4993579;28;20042;-66
2020/12/29 13:43:58;;;;;;;5.20;2.47;;;;;;;;;;4993653;28;20042;-65
2020/12/29 13:46:25;;;;;;;5.65;2.35;;;;;;;;;;4993019;28;20033;-66
2020/12/29 13:48:50;;;;;;;7.38;3.42;;;;;;;;;;4973884;28;21060;-66
2020/12/29 13:51:16;;;;;;;6.25;2.58;;;;;;;;;;4993335;28;20045;-65
2020/12/29 13:53:41;;;;;;;4.40;2.55;;;;;;;;;;4995235;28;20068;-65
2020/12/29 13:56:06;;;;;;;5.22;2.55;;;;;;;;;;4992925;28;20141;-65
2020/12/29 13:58:32;;;;;;;7.55;2.38;;;;;;;;;;4995357;28;20158;-66
2020/12/29 14:00:57;;;;;;;6.38;2.67;;;;;;;;;;4994392;28;20073;-64
2020/12/29 14:03:22;;;;;;;6.15;2.80;;;;;;;;;;4993150;28;20049;-65
2020/12/29 14:05:48;;;;;;;3.80;2.22;;;;;;;;;;4996594;28;20026;-64
2020/12/29 14:08:13;;;;;;;6.45;2.28;;;;;;;;;;4992269;28;20053;-65
2020/12/29 14:10:39;;;;;;;11.27;2.78;;;;;;;;;;4993388;28;20092;-65
2020/12/29 14:13:04;;;;;;;5.65;2.35;;;;;;;;;;4991606;28;20076;-64
2020/12/29 14:15:29;;;;;;;8.70;2.33;;;;;;;;;;4991597;28;20038;-65
2020/12/29 14:17:55;;;;;;;5.97;2.15;;;;;;;;;;4993387;28;20041;-65
2020/12/29 14:20:21;;;;;;;8.15;2.53;;;;;;;;;;4992014;28;20041;-65
2020/12/29 14:22:46;;;;;;;3.92;1.95;;;;;;;;;;4992636;28;20048;-64
2020/12/29 14:25:12;;;;;;;6.03;2.45;;;;;;;;;;4994209;28;20034;-65
2020/12/29 14:27:37;;;;;;;5.90;2.33;;;;;;;;;;4996923;28;20030;-65
2020/12/29 14:30:04;;;;;;;4.13;2.25;;;;;;;;;;4991105;28;20491;-64
2020/12/29 14:32:30;;;;;;;3.88;2.10;;;;;;;;;;4992357;28;20034;-65
2020/12/29 14:34:55;;;;;;;3.83;1.80;;;;;;;;;;4992895;28;20041;-65
2020/12/29 14:37:20;;;;;;;9.05;2.53;;;;;;;;;;4995256;28;20462;-65
2020/12/29 14:39:46;;;;;;;4.78;1.98;;;;;;;;;;4997384;28;20045;-65
2020/12/29 14:42:11;;;;;;;4.93;1.70;;;;;;;;;;4995161;28;20038;-65